createdAt,value
2022-12-08T00:01:20.391Z,100.00
2022-12-08T00:03:49.025Z,100.00
2022-12-08T00:06:42.773Z,100.00
2022-12-08T00:09:24.806Z,100.00
2022-12-08T00:11:55.494Z,100.00
2022-12-08T00:14:30.371Z,100.00
2022-12-08T00:16:59.005Z,100.00
2022-12-08T00:19:28.084Z,100.00
2022-12-08T00:21:56.191Z,100.00
2022-12-08T00:24:25.877Z,100.00
2022-12-08T00:26:53.585Z,100.00
2022-12-08T00:29:21.642Z,100.00
2022-12-08T00:31:51.574Z,100.00
2022-12-08T00:34:19.559Z,100.00
2022-12-08T00:36:47.834Z,100.00
2022-12-08T00:39:18.047Z,100.00
2022-12-08T00:42:03.595Z,100.00
2022-12-08T00:44:31.090Z,100.00
2022-12-08T00:47:00.207Z,100.00
2022-12-08T00:49:27.873Z,100.00
2022-12-08T00:51:55.783Z,100.00
2022-12-08T00:54:23.947Z,100.00
2022-12-08T00:56:52.088Z,100.00
2022-12-08T00:59:20.230Z,100.00
2022-12-08T01:01:48.737Z,100.00
2022-12-08T01:04:19.553Z,100.00
2022-12-08T01:06:47.979Z,100.00
2022-12-08T01:09:17.184Z,100.00
2022-12-08T01:11:45.552Z,100.00
2022-12-08T01:14:13.724Z,100.00
2022-12-08T01:16:42.385Z,100.00
2022-12-08T01:19:12.011Z,100.00
2022-12-08T01:21:42.210Z,100.00
2022-12-08T01:24:12.963Z,100.00
2022-12-08T01:26:41.264Z,100.00
2022-12-08T01:29:09.050Z,100.00
2022-12-08T01:31:36.898Z,100.00
2022-12-08T01:34:05.062Z,100.00
2022-12-08T01:36:36.900Z,100.00
2022-12-08T01:39:08.311Z,100.00
2022-12-08T01:41:37.653Z,100.00
2022-12-08T01:44:43.769Z,100.00
2022-12-08T01:47:13.121Z,100.00
2022-12-08T01:49:40.872Z,100.00
2022-12-08T01:52:14.942Z,100.00
2022-12-08T01:54:47.338Z,100.00
2022-12-08T01:57:19.454Z,100.00
2022-12-08T01:59:51.149Z,100.00
2022-12-08T02:02:20.425Z,100.00
2022-12-08T02:04:48.565Z,100.00
2022-12-08T02:07:18.504Z,100.00
2022-12-08T02:09:47.195Z,100.00
2022-12-08T02:12:15.192Z,100.00
2022-12-08T02:14:51.910Z,100.00
2022-12-08T02:17:36.513Z,100.00
2022-12-08T02:20:34.269Z,100.00
2022-12-08T02:23:11.643Z,100.00
2022-12-08T02:25:47.827Z,100.00
2022-12-08T02:28:39.052Z,100.00
2022-12-08T02:31:18.452Z,100.00
2022-12-08T02:34:10.804Z,100.00
2022-12-08T02:36:47.992Z,100.00
2022-12-08T02:39:26.685Z,100.00
2022-12-08T02:42:00.674Z,100.00
2022-12-08T02:44:33.977Z,100.00
2022-12-08T02:47:06.871Z,100.00
2022-12-08T02:49:36.911Z,100.00
2022-12-08T02:52:09.497Z,100.00
2022-12-08T02:54:37.860Z,100.00
2022-12-08T02:57:22.672Z,100.00
2022-12-08T03:00:03.494Z,100.00
2022-12-08T03:02:49.820Z,100.00
2022-12-08T03:05:39.895Z,100.00
2022-12-08T03:08:15.799Z,100.00
2022-12-08T03:10:48.338Z,100.00
2022-12-08T03:13:18.294Z,100.00
2022-12-08T03:15:50.712Z,100.00
2022-12-08T03:18:23.921Z,100.00
2022-12-08T03:20:53.078Z,100.00
2022-12-08T03:23:23.167Z,100.00
2022-12-08T03:25:57.336Z,100.00
2022-12-08T03:28:25.717Z,100.00
2022-12-08T03:30:58.855Z,100.00
2022-12-08T03:33:31.415Z,100.00
2022-12-08T03:36:03.038Z,100.00
2022-12-08T03:38:38.831Z,100.00
2022-12-08T03:41:20.408Z,100.00
2022-12-08T03:43:49.646Z,100.00
2022-12-08T03:46:18.218Z,100.00
2022-12-08T03:48:45.953Z,100.00
2022-12-08T03:51:15.658Z,100.00
2022-12-08T03:53:43.904Z,100.00
2022-12-08T03:56:17.720Z,100.00
2022-12-08T03:58:45.649Z,100.00
2022-12-08T04:01:13.631Z,100.00
2022-12-08T04:03:41.413Z,100.00
2022-12-08T04:06:09.384Z,100.00
2022-12-08T04:08:38.521Z,100.00
2022-12-08T04:11:07.247Z,100.00
2022-12-08T04:13:35.097Z,100.00
2022-12-08T04:16:03.300Z,100.00
2022-12-08T04:18:31.236Z,100.00
2022-12-08T04:20:58.947Z,100.00
2022-12-08T04:23:26.796Z,100.00
2022-12-08T04:25:55.813Z,100.00
2022-12-08T04:28:23.572Z,100.00
2022-12-08T04:30:51.420Z,100.00
2022-12-08T04:33:19.087Z,100.00
2022-12-08T04:35:46.791Z,100.00
2022-12-08T04:38:14.935Z,100.00
2022-12-08T04:40:42.708Z,100.00
2022-12-08T04:43:11.781Z,100.00
2022-12-08T04:45:41.110Z,100.00
2022-12-08T04:48:09.788Z,100.00
2022-12-08T04:50:40.847Z,100.00
2022-12-08T04:53:09.177Z,100.00
2022-12-08T04:55:39.423Z,100.00
2022-12-08T04:58:07.107Z,100.00
2022-12-08T05:00:36.208Z,100.00
2022-12-08T05:03:03.995Z,100.00
2022-12-08T05:05:31.716Z,100.00
2022-12-08T05:07:59.450Z,100.00
2022-12-08T05:10:27.350Z,100.00
2022-12-08T05:12:55.229Z,100.00
2022-12-08T05:15:22.954Z,100.00
2022-12-08T05:17:52.032Z,100.00
2022-12-08T05:20:19.906Z,100.00
2022-12-08T05:22:47.644Z,100.00
2022-12-08T05:25:15.911Z,100.00
2022-12-08T05:27:43.900Z,100.00
2022-12-08T05:30:12.100Z,100.00
2022-12-08T05:32:39.916Z,100.00
2022-12-08T05:35:09.797Z,100.00
2022-12-08T05:37:37.663Z,100.00
2022-12-08T05:40:06.537Z,100.00
2022-12-08T05:42:34.543Z,100.00
2022-12-08T05:45:02.300Z,100.00
2022-12-08T05:47:34.535Z,100.00
2022-12-08T05:50:04.063Z,100.00
2022-12-08T05:52:33.640Z,100.00
2022-12-08T05:55:01.478Z,100.00
2022-12-08T05:57:29.263Z,100.00
2022-12-08T05:59:59.387Z,100.00
2022-12-08T06:02:27.458Z,100.00
2022-12-08T06:04:55.221Z,100.00
2022-12-08T06:07:22.932Z,100.00
2022-12-08T06:09:52.278Z,100.00
2022-12-08T06:12:21.165Z,100.00
2022-12-08T06:14:48.823Z,100.00
2022-12-08T06:17:16.505Z,100.00
2022-12-08T06:19:44.182Z,100.00
2022-12-08T06:22:11.909Z,100.00
2022-12-08T06:24:39.692Z,100.00
2022-12-08T06:27:08.705Z,100.00
2022-12-08T06:29:36.449Z,100.00
2022-12-08T06:32:04.155Z,100.00
2022-12-08T06:34:31.998Z,100.00
2022-12-08T06:36:59.664Z,100.00
2022-12-08T06:39:27.535Z,100.00
2022-12-08T06:42:12.932Z,100.00
2022-12-08T06:44:41.932Z,100.00
2022-12-08T06:47:09.613Z,100.00
2022-12-08T06:49:37.505Z,100.00
2022-12-08T06:52:05.722Z,100.00
2022-12-08T06:54:33.440Z,100.00
2022-12-08T06:57:01.183Z,100.00
2022-12-08T06:59:28.871Z,100.00
2022-12-08T07:01:58.551Z,100.00
2022-12-08T07:04:26.788Z,100.00
2022-12-08T07:06:54.514Z,100.00
2022-12-08T07:09:22.267Z,100.00
2022-12-08T07:11:49.945Z,100.00
2022-12-08T07:14:17.696Z,100.00
2022-12-08T07:16:45.413Z,100.00
2022-12-08T07:19:15.022Z,100.00
2022-12-08T07:21:42.746Z,100.00
2022-12-08T07:24:10.427Z,100.00
2022-12-08T07:26:38.482Z,100.00
2022-12-08T07:29:06.683Z,100.00
2022-12-08T07:31:34.364Z,100.00
2022-12-08T07:34:02.044Z,100.00
2022-12-08T07:36:32.438Z,100.00
2022-12-08T07:39:00.410Z,100.00
2022-12-08T07:41:28.364Z,100.00
2022-12-08T07:43:57.220Z,100.00
2022-12-08T07:46:26.779Z,100.00
2022-12-08T07:48:55.590Z,100.00
2022-12-08T07:51:24.779Z,100.00
2022-12-08T07:53:55.140Z,100.00
2022-12-08T07:56:24.075Z,100.00
2022-12-08T07:58:52.029Z,100.00
2022-12-08T08:01:25.837Z,100.00
2022-12-08T08:03:54.954Z,100.00
2022-12-08T08:06:22.694Z,100.00
2022-12-08T08:08:50.466Z,100.00
2022-12-08T08:11:21.550Z,100.00
2022-12-08T08:13:49.883Z,100.00
2022-12-08T08:16:18.813Z,100.00
2022-12-08T08:18:48.685Z,100.00
2022-12-08T08:21:43.643Z,100.00
2022-12-08T08:24:05.093Z,100.00
2022-12-08T08:26:34.126Z,100.00
2022-12-08T08:29:01.825Z,100.00
2022-12-08T08:31:29.614Z,100.00
2022-12-08T08:33:58.034Z,100.00
2022-12-08T08:36:26.574Z,100.00
2022-12-08T08:38:54.240Z,100.00
2022-12-08T08:41:21.950Z,100.00
2022-12-08T08:43:50.956Z,100.00
2022-12-08T08:46:18.699Z,100.00
2022-12-08T08:48:46.393Z,100.00
2022-12-08T08:51:15.680Z,100.00
2022-12-08T08:53:44.124Z,100.00
2022-12-08T08:56:13.070Z,100.00
2022-12-08T08:58:40.836Z,100.00
2022-12-08T09:01:10.107Z,100.00
2022-12-08T09:03:37.870Z,100.00
2022-12-08T09:06:05.791Z,100.00
2022-12-08T09:08:33.739Z,100.00
2022-12-08T09:11:01.487Z,100.00
2022-12-08T09:13:29.571Z,100.00
2022-12-08T09:15:57.349Z,100.00
2022-12-08T09:18:26.822Z,100.00
2022-12-08T09:20:54.885Z,100.00
2022-12-08T09:23:22.541Z,100.00
2022-12-08T09:25:50.244Z,100.00
2022-12-08T09:28:17.921Z,100.00
2022-12-08T09:30:45.631Z,100.00
2022-12-08T09:33:13.348Z,100.00
2022-12-08T09:35:42.393Z,100.00
2022-12-08T09:38:10.103Z,100.00
2022-12-08T09:40:45.162Z,100.00
2022-12-08T09:43:25.221Z,100.00
2022-12-08T09:45:54.048Z,99.02
2022-12-08T09:48:26.385Z,99.63
2022-12-08T09:50:57.957Z,99.63
2022-12-08T09:53:35.337Z,99.61
2022-12-08T09:56:07.811Z,98.92
2022-12-08T09:58:47.530Z,98.01
2022-12-08T10:01:15.854Z,98.96
2022-12-08T10:03:44.118Z,98.87
2022-12-08T10:06:22.371Z,99.42
2022-12-08T10:09:02.047Z,98.91
2022-12-08T10:11:37.551Z,98.99
2022-12-08T10:14:20.025Z,97.79
2022-12-08T10:16:50.421Z,97.30
2022-12-08T10:19:22.662Z,96.52
2022-12-08T10:21:54.034Z,96.49
2022-12-08T10:24:29.967Z,95.91
2022-12-08T10:26:58.432Z,97.41
2022-12-08T10:29:26.233Z,96.66
2022-12-08T10:31:54.062Z,97.33
2022-12-08T10:34:24.352Z,98.20
2022-12-08T10:36:56.160Z,97.07
2022-12-08T10:39:32.269Z,97.35
2022-12-08T10:42:10.824Z,98.76
2022-12-08T10:44:54.965Z,98.44
2022-12-08T10:47:24.679Z,97.63
2022-12-08T10:50:09.505Z,97.34
2022-12-08T10:52:42.082Z,98.01
2022-12-08T10:55:16.889Z,97.22
2022-12-08T10:57:44.904Z,96.49
2022-12-08T11:00:15.416Z,97.66
2022-12-08T11:02:59.614Z,96.99
2022-12-08T11:05:30.691Z,97.49
2022-12-08T11:08:00.218Z,96.65
2022-12-08T11:10:38.258Z,97.12
2022-12-08T11:13:12.528Z,97.03
2022-12-08T11:15:41.436Z,94.44
2022-12-08T11:18:21.358Z,95.90
2022-12-08T11:20:56.616Z,96.37
2022-12-08T11:23:27.755Z,96.27
2022-12-08T11:25:59.772Z,96.69
2022-12-08T11:28:27.472Z,96.54
2022-12-08T11:31:01.537Z,96.00
2022-12-08T11:33:30.206Z,96.31
2022-12-08T11:36:03.372Z,97.36
2022-12-08T11:38:35.282Z,96.78
2022-12-08T11:41:10.808Z,95.78
2022-12-08T11:43:49.314Z,96.09
2022-12-08T11:46:22.990Z,95.41
2022-12-08T11:48:54.635Z,96.89
2022-12-08T11:51:31.501Z,95.53
2022-12-08T11:54:15.062Z,95.63
2022-12-08T11:56:45.789Z,96.05
2022-12-08T11:59:21.268Z,95.61
2022-12-08T12:01:49.008Z,95.70
2022-12-08T12:04:23.726Z,96.75
2022-12-08T12:07:23.074Z,96.92
2022-12-08T12:10:09.259Z,95.90
2022-12-08T12:12:51.994Z,97.10
2022-12-08T12:15:40.632Z,96.37
2022-12-08T12:18:16.921Z,96.33
2022-12-08T12:20:52.534Z,96.32
2022-12-08T12:23:24.148Z,96.73
2022-12-08T12:25:58.942Z,95.97
2022-12-08T12:28:30.773Z,95.70
2022-12-08T12:31:02.026Z,95.70
2022-12-08T12:33:32.038Z,93.48
2022-12-08T12:36:04.313Z,93.93
2022-12-08T12:38:53.910Z,93.57
2022-12-08T12:41:27.206Z,92.98
2022-12-08T12:44:33.348Z,92.67
2022-12-08T12:47:02.816Z,90.90
2022-12-08T12:50:04.086Z,88.56
2022-12-08T12:52:55.836Z,90.00
2022-12-08T12:55:26.465Z,89.12
2022-12-08T12:57:57.494Z,88.24
2022-12-08T13:00:26.787Z,88.30
2022-12-08T13:02:57.674Z,87.62
2022-12-08T13:05:28.194Z,87.54
2022-12-08T13:07:58.738Z,85.59
2022-12-08T13:10:30.186Z,86.36
2022-12-08T13:13:20.148Z,87.08
2022-12-08T13:15:52.666Z,86.79
2022-12-08T13:18:22.914Z,85.90
2022-12-08T13:20:54.005Z,83.56
2022-12-08T13:23:43.980Z,84.60
2022-12-08T13:26:18.560Z,83.10
2022-12-08T13:29:16.010Z,84.78
2022-12-08T13:31:50.428Z,83.54
2022-12-08T13:34:31.253Z,83.45
2022-12-08T13:37:07.726Z,83.09
2022-12-08T13:39:42.964Z,82.99
2022-12-08T13:42:20.687Z,83.64
2022-12-08T13:45:21.503Z,83.95
2022-12-08T13:48:20.323Z,84.74
2022-12-08T13:52:37.056Z,84.59
2022-12-08T13:54:35.298Z,82.13
2022-12-08T13:59:24.759Z,82.67
2022-12-08T14:01:57.216Z,82.89
2022-12-08T14:07:14.939Z,83.28
2022-12-08T14:09:43.742Z,82.51
2022-12-08T14:12:19.774Z,83.17
2022-12-08T14:15:05.430Z,81.71
2022-12-08T14:17:35.272Z,82.08
2022-12-08T14:20:14.300Z,81.52
2022-12-08T14:22:42.694Z,81.98
2022-12-08T14:25:15.762Z,83.37
2022-12-08T14:27:43.754Z,83.94
2022-12-08T14:30:20.438Z,84.81
2022-12-08T14:32:51.638Z,84.78
2022-12-08T14:35:23.905Z,84.66
2022-12-08T14:37:55.784Z,84.83
2022-12-08T14:40:25.578Z,84.24
2022-12-08T14:42:55.307Z,83.61
2022-12-08T14:45:23.116Z,83.83
2022-12-08T14:47:52.243Z,84.21
2022-12-08T14:50:41.921Z,85.22
2022-12-08T14:53:16.584Z,84.32
2022-12-08T14:55:47.521Z,83.04
2022-12-08T14:58:22.035Z,83.32
2022-12-08T15:00:52.170Z,82.54
2022-12-08T15:03:23.595Z,83.49
2022-12-08T15:05:53.000Z,83.51
2022-12-08T15:08:20.869Z,83.13
2022-12-08T15:11:18.670Z,83.67
2022-12-08T15:13:48.206Z,83.06
2022-12-08T15:16:25.826Z,82.91
2022-12-08T15:19:05.916Z,84.04
2022-12-08T15:21:39.005Z,83.83
2022-12-08T15:24:07.111Z,83.31
2022-12-08T15:26:41.552Z,83.74
2022-12-08T15:29:14.807Z,83.53
2022-12-08T15:31:42.504Z,83.57
2022-12-08T15:34:11.631Z,84.14
2022-12-08T15:36:40.033Z,85.41
2022-12-08T15:39:21.372Z,84.36
2022-12-08T15:41:49.070Z,84.19
2022-12-08T15:44:16.718Z,84.65
2022-12-08T15:46:44.588Z,84.38
2022-12-08T15:49:18.285Z,84.09
2022-12-08T15:51:46.260Z,84.35
2022-12-08T15:54:14.389Z,84.95
2022-12-08T15:57:17.419Z,84.90
2022-12-08T15:59:33.883Z,84.88
2022-12-08T16:02:01.711Z,84.16
2022-12-08T16:05:25.146Z,84.66
2022-12-08T16:07:22.994Z,84.52
2022-12-08T16:09:50.937Z,83.94
2022-12-08T16:18:17.605Z,84.42
2022-12-08T16:23:42.881Z,84.07
2022-12-08T16:26:28.599Z,85.00
2022-12-08T16:29:00.902Z,85.32
2022-12-08T16:31:28.846Z,85.29
2022-12-08T16:33:56.627Z,85.03
2022-12-08T16:36:25.690Z,85.43
2022-12-08T16:38:53.426Z,84.88
2022-12-08T16:41:38.919Z,85.17
2022-12-08T16:44:06.847Z,85.29
2022-12-08T16:46:34.759Z,85.64
2022-12-08T16:49:02.437Z,85.68
2022-12-08T16:51:31.834Z,85.43
2022-12-08T16:53:59.553Z,85.73
2022-12-08T16:56:32.632Z,86.05
2022-12-08T16:59:01.452Z,86.67
2022-12-08T17:01:29.271Z,86.97
2022-12-08T17:04:22.943Z,86.00
2022-12-08T17:06:46.406Z,86.46
2022-12-08T17:09:14.387Z,86.76
2022-12-08T17:11:43.627Z,86.26
2022-12-08T17:14:12.532Z,86.69
2022-12-08T17:16:40.474Z,86.59
2022-12-08T17:19:08.412Z,87.56
2022-12-08T17:21:36.153Z,87.26
2022-12-08T17:24:05.686Z,87.32
2022-12-08T17:26:33.573Z,87.70
2022-12-08T17:29:03.270Z,88.25
2022-12-08T17:31:32.955Z,88.23
2022-12-08T17:34:01.378Z,87.89
2022-12-08T17:36:29.234Z,88.81
2022-12-08T17:38:57.351Z,89.29
2022-12-08T17:41:26.423Z,89.55
2022-12-08T17:43:54.116Z,88.96
2022-12-08T17:46:22.892Z,88.77
2022-12-08T17:48:51.083Z,89.40
2022-12-08T17:51:18.812Z,89.87
2022-12-08T17:53:46.499Z,90.13
2022-12-08T17:56:17.577Z,90.96
2022-12-08T17:58:51.292Z,91.16
2022-12-08T18:01:20.781Z,91.28
2022-12-08T18:03:48.559Z,91.65
2022-12-08T18:06:17.486Z,91.83
2022-12-08T18:08:45.256Z,91.52
2022-12-08T18:11:16.319Z,91.90
2022-12-08T18:13:45.992Z,92.67
2022-12-08T18:16:14.602Z,92.51
2022-12-08T18:18:42.518Z,92.79
2022-12-08T18:21:10.543Z,94.18
2022-12-08T18:23:38.831Z,94.43
2022-12-08T18:26:07.236Z,94.62
2022-12-08T18:28:35.527Z,95.17
2022-12-08T18:31:09.717Z,96.30
2022-12-08T18:33:38.047Z,97.18
2022-12-08T18:36:09.196Z,97.07
2022-12-08T18:38:37.208Z,97.20
2022-12-08T18:41:06.722Z,98.19
2022-12-08T18:43:34.543Z,98.96
2022-12-08T18:46:05.003Z,99.17
2022-12-08T18:48:32.686Z,100.00
2022-12-08T18:51:00.356Z,99.00
2022-12-08T18:53:28.439Z,99.39
2022-12-08T18:55:56.138Z,100.00
2022-12-08T18:58:23.842Z,99.99
2022-12-08T19:00:51.745Z,100.00
2022-12-08T19:03:20.793Z,100.00
2022-12-08T19:05:48.555Z,99.96
2022-12-08T19:08:16.295Z,100.00
2022-12-08T19:10:44.034Z,100.00
2022-12-08T19:13:11.898Z,99.80
2022-12-08T19:15:39.697Z,100.00
2022-12-08T19:18:07.425Z,100.00
2022-12-08T19:20:36.480Z,100.00
2022-12-08T19:23:04.570Z,100.00
2022-12-08T19:25:32.296Z,100.00
2022-12-08T19:27:59.995Z,100.00
2022-12-08T19:30:27.682Z,100.00
2022-12-08T19:32:55.417Z,100.00
2022-12-08T19:35:23.177Z,100.00
2022-12-08T19:37:52.279Z,100.00
2022-12-08T19:40:37.792Z,100.00
2022-12-08T19:43:22.619Z,100.00
2022-12-08T19:45:50.435Z,100.00
2022-12-08T19:48:18.312Z,100.00
2022-12-08T19:50:46.083Z,100.00
2022-12-08T19:53:16.914Z,100.00
2022-12-08T19:55:45.192Z,100.00
2022-12-08T19:58:12.956Z,100.00
2022-12-08T20:00:41.779Z,100.00
2022-12-08T20:03:10.109Z,100.00
2022-12-08T20:05:38.258Z,99.45
2022-12-08T20:08:06.594Z,100.00
2022-12-08T20:10:39.225Z,100.00
2022-12-08T20:13:25.121Z,100.00
2022-12-08T20:15:53.591Z,100.00
2022-12-08T20:18:21.666Z,100.00
2022-12-08T20:20:49.911Z,100.00
2022-12-08T20:23:17.725Z,100.00
2022-12-08T20:25:47.757Z,100.00
2022-12-08T20:28:16.068Z,100.00
2022-12-08T20:30:46.793Z,100.00
2022-12-08T20:33:14.880Z,99.87
2022-12-08T20:35:43.058Z,99.11
2022-12-08T20:38:10.990Z,98.80
2022-12-08T20:40:42.484Z,99.24
2022-12-08T20:43:11.786Z,99.60
2022-12-08T20:45:39.986Z,100.00
2022-12-08T20:48:07.898Z,100.00
2022-12-08T20:50:35.852Z,100.00
2022-12-08T20:53:03.641Z,100.00
2022-12-08T20:55:31.513Z,100.00
2022-12-08T20:57:59.398Z,100.00
2022-12-08T21:00:28.802Z,100.00
2022-12-08T21:02:57.290Z,100.00
2022-12-08T21:05:25.467Z,100.00
2022-12-08T21:07:53.681Z,100.00
2022-12-08T21:10:21.519Z,100.00
2022-12-08T21:12:49.440Z,100.00
2022-12-08T21:15:17.338Z,100.00
2022-12-08T21:17:47.720Z,100.00
2022-12-08T21:20:16.087Z,100.00
2022-12-08T21:22:44.341Z,100.00
2022-12-08T21:25:12.272Z,100.00
2022-12-08T21:27:40.604Z,100.00
2022-12-08T21:30:10.598Z,100.00
2022-12-08T21:32:39.631Z,100.00
2022-12-08T21:35:10.063Z,100.00
2022-12-08T21:37:38.104Z,100.00
2022-12-08T21:40:08.014Z,100.00
2022-12-08T21:42:44.498Z,100.00
2022-12-08T21:45:13.934Z,100.00
2022-12-08T21:47:42.401Z,100.00
2022-12-08T21:50:13.002Z,100.00
2022-12-08T21:52:41.461Z,100.00
2022-12-08T21:55:12.195Z,100.00
2022-12-08T21:57:40.283Z,100.00
2022-12-08T22:00:12.655Z,100.00
2022-12-08T22:02:40.676Z,100.00
2022-12-08T22:05:09.336Z,100.00
2022-12-08T22:07:41.819Z,100.00
2022-12-08T22:10:11.671Z,100.00
2022-12-08T22:12:40.332Z,100.00
2022-12-08T22:15:09.853Z,100.00
2022-12-08T22:17:39.342Z,100.00
2022-12-08T22:20:09.266Z,100.00
2022-12-08T22:22:39.241Z,100.00
2022-12-08T22:25:10.971Z,100.00
2022-12-08T22:27:39.397Z,100.00
2022-12-08T22:30:08.782Z,100.00
2022-12-08T22:32:37.141Z,100.00
2022-12-08T22:35:05.728Z,100.00
2022-12-08T22:37:33.695Z,100.00
2022-12-08T22:40:03.169Z,100.00
2022-12-08T22:42:31.293Z,100.00
2022-12-08T22:44:59.144Z,100.00
2022-12-08T22:47:26.873Z,100.00
2022-12-08T22:49:54.643Z,100.00
2022-12-08T22:52:22.504Z,100.00
2022-12-08T22:54:50.629Z,100.00
2022-12-08T22:57:22.796Z,100.00
2022-12-08T22:59:50.622Z,100.00
2022-12-08T23:02:18.486Z,100.00
2022-12-08T23:04:47.208Z,100.00
2022-12-08T23:07:15.275Z,100.00
2022-12-08T23:09:43.472Z,100.00
2022-12-08T23:12:11.257Z,100.00
2022-12-08T23:14:40.557Z,100.00
2022-12-08T23:17:08.326Z,100.00
2022-12-08T23:19:36.864Z,100.00
2022-12-08T23:22:04.708Z,100.00
2022-12-08T23:24:32.535Z,100.00
2022-12-08T23:27:00.398Z,100.00
2022-12-08T23:29:28.317Z,100.00
2022-12-08T23:31:57.469Z,100.00
2022-12-08T23:34:25.347Z,100.00
2022-12-08T23:36:53.056Z,100.00
2022-12-08T23:39:24.132Z,100.00
2022-12-08T23:41:52.313Z,100.00
2022-12-08T23:44:20.230Z,100.00
2022-12-08T23:46:48.103Z,100.00
2022-12-08T23:49:17.640Z,100.00
2022-12-08T23:51:45.564Z,100.00
2022-12-08T23:54:13.472Z,100.00
2022-12-08T23:56:42.742Z,100.00
2022-12-08T23:59:10.599Z,100.00
